Time;durP1;ratioP1;P1;durP2;ratioP2;P2;SDS_P1;SDS_P2;PMS_P1;PMS_P2;Temp;Humidity;BMP_temperature;BMP_pressure;BME280_temperature;BME280_humidity;BME280_pressure;Samples;Min_cycle;Max_cycle;Signal;HPM_P1;HPM_P2
2023/06/13 00:02:04;;;;;;;11.70;8.33;;;19.30;60.30;;;;;;4964492;28;20461;-73
2023/06/13 00:04:31;;;;;;;12.10;9.30;;;19.20;60.30;;;;;;4969719;28;20439;-74
2023/06/13 00:06:58;;;;;;;10.27;9.10;;;19.10;60.40;;;;;;4963478;28;20447;-72
2023/06/13 00:09:25;;;;;;;8.93;8.00;;;19.10;60.50;;;;;;4968958;28;20492;-75
2023/06/13 00:11:53;;;;;;;10.00;9.10;;;19.10;60.60;;;;;;4969493;28;20449;-72
2023/06/13 00:14:21;;;;;;;10.17;8.90;;;19.00;60.50;;;;;;4967193;28;20534;-73
2023/06/13 00:16:50;;;;;;;9.90;8.90;;;19.00;60.90;;;;;;4966135;28;20446;-74
2023/06/13 00:19:18;;;;;;;8.93;7.77;;;19.00;60.90;;;;;;4967127;28;20456;-72
2023/06/13 00:21:46;;;;;;;9.40;8.60;;;18.90;60.70;;;;;;4970330;28;20547;-74
2023/06/13 00:24:15;;;;;;;9.90;8.90;;;18.90;60.80;;;;;;4968471;28;20548;-73
2023/06/13 00:26:41;;;;;;;11.93;7.80;;;18.80;60.50;;;;;;4968222;28;20465;-74
2023/06/13 00:29:08;;;;;;;11.40;9.57;;;18.80;60.80;;;;;;4968467;28;20485;-74
2023/06/13 00:31:35;;;;;;;9.97;8.97;;;18.70;60.80;;;;;;4968040;28;20450;-73
2023/06/13 00:34:02;;;;;;;9.33;8.43;;;18.70;60.80;;;;;;4966225;28;21002;-74
2023/06/13 00:36:33;;;;;;;10.63;8.87;;;18.70;60.80;;;;;;4969141;28;20890;-74
2023/06/13 00:39:01;;;;;;;8.40;7.70;;;18.70;61.10;;;;;;4973091;28;20449;-73
2023/06/13 00:41:31;;;;;;;9.70;8.03;;;18.70;60.90;;;;;;4966634;28;20969;-74
2023/06/13 00:43:58;;;;;;;9.57;7.90;;;18.60;61.60;;;;;;4969859;28;20465;-75
2023/06/13 00:46:30;;;;;;;9.20;8.10;;;18.50;61.20;;;;;;4969510;28;20540;-73
2023/06/13 00:48:59;;;;;;;8.87;7.93;;;18.50;61.30;;;;;;4971320;28;20565;-74
2023/06/13 00:51:27;;;;;;;10.43;7.30;;;18.50;61.30;;;;;;4969459;28;20452;-72
2023/06/13 00:53:58;;;;;;;9.27;7.27;;;18.40;61.50;;;;;;4970450;28;20462;-76
2023/06/13 00:56:28;;;;;;;8.37;7.57;;;18.40;62.00;;;;;;4966179;28;20557;-73
2023/06/13 00:58:56;;;;;;;8.93;7.97;;;18.40;61.80;;;;;;4968645;28;20514;-73
2023/06/13 01:01:24;;;;;;;8.60;7.73;;;18.40;62.00;;;;;;4969465;28;20446;-75
2023/06/13 01:03:52;;;;;;;7.90;7.13;;;18.30;61.90;;;;;;4972974;28;20536;-75
2023/06/13 01:06:19;;;;;;;7.90;7.00;;;18.30;62.30;;;;;;4973621;28;20461;-73
2023/06/13 01:08:46;;;;;;;9.03;8.23;;;18.30;62.60;;;;;;4972156;28;20476;-74
2023/06/13 01:11:20;;;;;;;7.83;7.03;;;18.20;62.20;;;;;;4966098;28;20466;-74
2023/06/13 01:13:54;;;;;;;8.20;7.40;;;18.10;62.40;;;;;;4968759;28;20470;-74
2023/06/13 01:16:26;;;;;;;8.37;7.30;;;18.00;62.70;;;;;;4976785;28;20979;-73
2023/06/13 01:18:55;;;;;;;8.90;8.10;;;17.90;62.70;;;;;;4971885;28;20446;-75
2023/06/13 01:21:24;;;;;;;8.30;7.60;;;17.90;62.60;;;;;;4969629;28;20480;-72
2023/06/13 01:23:58;;;;;;;9.70;8.70;;;17.90;63.10;;;;;;4965092;28;20466;-74
2023/06/13 01:26:57;;;;;;;8.83;7.67;;;17.90;63.30;;;;;;4973426;28;20444;-74
2023/06/13 01:29:26;;;;;;;8.60;7.70;;;17.90;62.80;;;;;;4938250;28;20548;-73
2023/06/13 01:31:56;;;;;;;8.90;7.67;;;17.70;63.10;;;;;;4977482;28;20440;-73
2023/06/13 01:34:25;;;;;;;7.93;7.13;;;17.70;63.70;;;;;;4978774;28;20502;-72
2023/06/13 01:36:52;;;;;;;12.07;7.80;;;17.60;63.90;;;;;;4972798;28;20502;-74
2023/06/13 01:39:19;;;;;;;8.40;7.50;;;17.50;64.20;;;;;;4975045;28;20484;-72
2023/06/13 01:41:46;;;;;;;7.67;6.87;;;17.50;64.00;;;;;;4970209;28;20941;-75
2023/06/13 01:44:19;;;;;;;9.57;8.30;;;17.50;64.10;;;;;;4978877;28;20472;-74
2023/06/13 01:46:55;;;;;;;8.93;6.80;;;17.50;63.90;;;;;;4975924;28;20509;-73
2023/06/13 01:49:30;;;;;;;8.70;7.40;;;17.40;63.40;;;;;;4975675;28;20487;-72
2023/06/13 01:52:01;;;;;;;10.00;7.80;;;17.40;63.00;;;;;;4978585;28;20448;-72
2023/06/13 01:54:33;;;;;;;9.25;8.20;;;17.50;63.10;;;;;;4971892;28;20264;-74
2023/06/13 01:57:05;;;;;;;11.00;8.33;;;17.40;63.50;;;;;;4967417;28;20205;-75
2023/06/13 01:59:33;;;;;;;9.68;7.15;;;17.40;63.80;;;;;;4967425;28;20446;-73
2023/06/13 02:02:04;;;;;;;8.97;7.50;;;17.40;63.40;;;;;;4965060;28;20557;-72
2023/06/13 02:04:38;;;;;;;10.03;7.80;;;17.40;63.20;;;;;;4967268;28;20545;-74
2023/06/13 02:07:06;;;;;;;8.27;7.47;;;17.40;63.50;;;;;;4964435;28;20887;-75
2023/06/13 02:09:33;;;;;;;7.68;6.65;;;17.30;63.10;;;;;;4967325;28;20492;-73
2023/06/13 02:12:00;;;;;;;7.77;7.00;;;17.20;63.70;;;;;;4963888;28;20301;-73
2023/06/13 02:14:27;;;;;;;7.03;6.43;;;17.30;63.80;;;;;;4966219;28;20450;-72
2023/06/13 02:16:54;;;;;;;8.47;7.67;;;17.30;63.70;;;;;;4961764;28;20484;-75
2023/06/13 02:19:22;;;;;;;7.53;6.60;;;17.30;64.10;;;;;;4965427;28;20556;-73
2023/06/13 02:21:53;;;;;;;7.90;7.20;;;17.10;64.30;;;;;;4967500;28;20524;-73
2023/06/13 02:24:21;;;;;;;9.70;6.65;;;17.10;64.70;;;;;;4973213;28;20460;-73
2023/06/13 02:26:49;;;;;;;6.87;6.13;;;17.10;64.30;;;;;;4966211;28;20260;-73
2023/06/13 02:29:20;;;;;;;6.67;5.93;;;17.00;64.50;;;;;;4973632;28;20517;-73
2023/06/13 02:31:48;;;;;;;9.97;6.53;;;17.00;65.00;;;;;;4978359;28;20491;-73
2023/06/13 02:34:15;;;;;;;8.57;5.70;;;16.90;64.80;;;;;;4973474;28;20457;-73
2023/06/13 02:36:43;;;;;;;7.23;6.60;;;16.90;64.80;;;;;;4968242;28;20446;-73
2023/06/13 02:39:11;;;;;;;8.00;6.30;;;16.90;65.00;;;;;;4961406;28;20549;-74
2023/06/13 02:41:38;;;;;;;8.77;6.47;;;16.80;64.80;;;;;;4964537;28;20666;-75
2023/06/13 02:44:05;;;;;;;8.33;6.30;;;16.80;65.30;;;;;;4967731;28;20235;-74
2023/06/13 02:46:32;;;;;;;8.55;7.07;;;16.80;65.20;;;;;;4968962;28;20447;-74
2023/06/13 02:49:00;;;;;;;8.10;5.90;;;16.70;65.10;;;;;;4967418;28;20669;-73
2023/06/13 02:51:27;;;;;;;7.97;6.45;;;16.70;65.30;;;;;;4973910;28;20528;-72
2023/06/13 02:53:56;;;;;;;8.50;7.60;;;16.70;65.50;;;;;;4964369;28;20663;-73
2023/06/13 02:56:23;;;;;;;7.15;6.40;;;16.60;65.50;;;;;;4973843;28;20812;-75
2023/06/13 02:58:50;;;;;;;6.70;6.10;;;16.50;65.80;;;;;;4967239;28;20692;-74
2023/06/13 03:01:17;;;;;;;7.30;6.70;;;16.50;65.90;;;;;;4965559;28;20457;-74
2023/06/13 03:03:47;;;;;;;9.02;6.78;;;16.60;66.20;;;;;;4969935;28;20267;-75
2023/06/13 03:06:16;;;;;;;7.35;6.63;;;16.50;66.60;;;;;;4967366;28;20670;-75
2023/06/13 03:08:43;;;;;;;7.30;6.55;;;16.50;66.90;;;;;;4965282;28;20288;-73
2023/06/13 03:11:13;;;;;;;8.93;6.90;;;16.40;67.10;;;;;;4965097;28;20268;-75
2023/06/13 03:13:40;;;;;;;7.80;7.00;;;16.50;66.80;;;;;;4966617;28;20231;-74
2023/06/13 03:16:08;;;;;;;7.85;6.82;;;16.50;66.70;;;;;;4966962;28;20206;-75
2023/06/13 03:18:36;;;;;;;7.70;6.07;;;16.40;67.00;;;;;;4965024;28;20206;-74
2023/06/13 03:21:04;;;;;;;6.90;6.20;;;16.40;66.70;;;;;;4966881;28;20916;-74
2023/06/13 03:23:30;;;;;;;10.35;7.22;;;16.40;66.90;;;;;;4973912;28;20232;-73
2023/06/13 03:25:57;;;;;;;8.63;7.20;;;16.40;66.60;;;;;;4966850;28;20304;-73
2023/06/13 03:28:26;;;;;;;10.50;6.65;;;16.40;66.60;;;;;;4967255;28;20213;-74
2023/06/13 03:30:54;;;;;;;9.40;7.32;;;16.40;66.60;;;;;;4971989;28;20223;-74
2023/06/13 03:33:22;;;;;;;8.25;7.47;;;16.40;67.00;;;;;;4968851;28;20235;-74
2023/06/13 03:35:50;;;;;;;6.80;6.13;;;16.40;67.00;;;;;;4970731;28;20208;-74
2023/06/13 03:38:17;;;;;;;8.20;7.10;;;16.40;67.00;;;;;;4967947;28;20578;-74
2023/06/13 03:40:44;;;;;;;7.20;6.53;;;16.40;67.40;;;;;;4979685;28;20625;-72
2023/06/13 03:43:11;;;;;;;13.30;7.47;;;16.50;67.50;;;;;;4967899;28;20264;-73
2023/06/13 03:45:39;;;;;;;8.02;6.90;;;16.50;67.80;;;;;;4973401;28;20208;-73
2023/06/13 03:48:06;;;;;;;8.52;7.57;;;16.50;67.40;;;;;;4970093;28;20200;-73
2023/06/13 03:50:33;;;;;;;9.63;7.40;;;16.50;67.10;;;;;;4969333;28;20236;-73
2023/06/13 03:53:00;;;;;;;7.88;7.10;;;16.50;66.90;;;;;;4972263;28;20227;-73
2023/06/13 03:55:27;;;;;;;8.35;7.53;;;16.60;67.10;;;;;;4977369;28;20228;-72
2023/06/13 03:57:54;;;;;;;8.70;7.28;;;16.70;67.30;;;;;;4974159;28;20204;-73
2023/06/13 04:00:21;;;;;;;8.90;7.88;;;16.70;66.60;;;;;;4973176;28;20220;-73
2023/06/13 04:02:50;;;;;;;10.63;7.35;;;16.80;66.40;;;;;;4990013;28;20252;-71
2023/06/13 04:05:17;;;;;;;9.83;8.00;;;17.00;66.90;;;;;;4979259;28;20584;-73
2023/06/13 04:07:44;;;;;;;9.40;7.37;;;17.50;67.10;;;;;;4972357;28;20457;-74
2023/06/13 04:10:12;;;;;;;8.27;7.33;;;18.20;65.70;;;;;;4965718;28;20481;-74
2023/06/13 04:12:38;;;;;;;11.60;8.17;;;19.00;64.00;;;;;;4966136;28;20521;-72
2023/06/13 04:15:06;;;;;;;8.53;7.57;;;19.80;61.60;;;;;;4967461;28;20458;-73
2023/06/13 04:17:36;;;;;;;9.00;7.97;;;20.50;60.60;;;;;;4967916;28;20463;-72
2023/06/13 04:20:06;;;;;;;8.23;6.60;;;21.10;59.30;;;;;;4967606;28;20716;-73
2023/06/13 04:22:33;;;;;;;10.13;8.20;;;21.80;58.50;;;;;;4967647;28;20472;-74
2023/06/13 04:25:00;;;;;;;10.53;7.70;;;22.40;57.20;;;;;;4972292;28;20443;-74
2023/06/13 04:27:28;;;;;;;10.40;7.30;;;22.80;56.40;;;;;;4972495;28;20861;-73
2023/06/13 04:29:56;;;;;;;12.70;7.37;;;23.30;56.00;;;;;;4973379;28;20869;-73
2023/06/13 04:32:28;;;;;;;6.23;5.63;;;23.60;54.80;;;;;;4967634;28;20477;-72
2023/06/13 04:34:58;;;;;;;9.17;8.27;;;24.20;54.30;;;;;;4967994;28;20533;-76
2023/06/13 04:37:26;;;;;;;7.63;6.83;;;24.70;53.50;;;;;;4967887;28;20454;-73
2023/06/13 04:39:53;;;;;;;9.20;7.00;;;24.80;54.00;;;;;;4967600;28;20537;-73
2023/06/13 04:42:24;;;;;;;7.63;6.83;;;25.30;53.00;;;;;;4970151;28;20561;-73
2023/06/13 04:44:53;;;;;;;7.57;6.60;;;25.90;52.00;;;;;;4973721;28;20450;-74
2023/06/13 04:47:21;;;;;;;13.50;7.73;;;26.00;51.20;;;;;;4966932;28;20867;-75
2023/06/13 04:49:48;;;;;;;9.93;6.90;;;26.40;50.80;;;;;;4962905;28;20813;-74
2023/06/13 04:52:15;;;;;;;7.97;6.43;;;26.50;50.00;;;;;;4964213;28;20486;-75
2023/06/13 04:54:43;;;;;;;10.57;5.87;;;26.90;49.40;;;;;;4966519;28;20442;-74
2023/06/13 04:57:10;;;;;;;12.97;6.20;;;27.10;49.00;;;;;;4967446;28;20450;-75
2023/06/13 04:59:37;;;;;;;14.30;6.47;;;27.30;48.40;;;;;;4969846;28;20447;-71
2023/06/13 05:02:04;;;;;;;7.57;6.33;;;27.60;48.50;;;;;;4970210;28;20698;-74
2023/06/13 05:04:31;;;;;;;6.30;5.70;;;28.10;47.70;;;;;;4964761;28;20450;-75
2023/06/13 05:06:59;;;;;;;7.27;5.43;;;28.30;47.10;;;;;;4971987;28;20858;-72
2023/06/13 05:09:27;;;;;;;5.90;5.23;;;28.60;46.90;;;;;;4968248;28;20579;-73
2023/06/13 05:11:55;;;;;;;6.00;5.23;;;28.80;46.60;;;;;;4972983;28;20572;-72
2023/06/13 05:14:23;;;;;;;7.87;6.60;;;29.10;46.40;;;;;;4968663;28;20526;-73
2023/06/13 05:16:50;;;;;;;10.40;6.53;;;29.10;45.60;;;;;;4971748;28;20529;-73
2023/06/13 05:19:19;;;;;;;15.33;6.20;;;28.90;45.90;;;;;;4968752;28;20476;-73
2023/06/13 05:21:46;;;;;;;6.93;6.23;;;28.60;46.00;;;;;;4967413;28;20534;-74
2023/06/13 05:24:13;;;;;;;6.27;5.63;;;28.80;46.10;;;;;;4971004;28;20484;-73
2023/06/13 05:26:41;;;;;;;5.50;4.70;;;28.80;46.30;;;;;;4966313;28;20442;-73
2023/06/13 05:29:09;;;;;;;6.73;6.13;;;29.30;45.80;;;;;;4972014;28;20822;-73
2023/06/13 05:31:36;;;;;;;5.87;4.80;;;29.60;46.00;;;;;;4968859;28;21055;-74
2023/06/13 05:34:03;;;;;;;8.87;5.73;;;29.80;45.40;;;;;;4970617;28;20481;-71
2023/06/13 05:36:30;;;;;;;6.27;5.50;;;29.90;44.30;;;;;;4966963;28;20524;-74
2023/06/13 05:38:57;;;;;;;8.10;4.43;;;29.90;44.00;;;;;;4967312;28;20456;-73
2023/06/13 05:41:24;;;;;;;8.67;5.03;;;29.70;44.20;;;;;;4966837;28;20458;-73
2023/06/13 05:43:52;;;;;;;6.47;4.57;;;29.60;44.30;;;;;;4965519;28;20469;-73
2023/06/13 05:46:20;;;;;;;5.67;3.83;;;29.40;44.80;;;;;;4967532;28;20521;-73
2023/06/13 05:48:47;;;;;;;5.33;4.40;;;29.10;44.50;;;;;;4965915;28;20441;-75
2023/06/13 05:51:14;;;;;;;4.20;3.80;;;29.00;45.20;;;;;;4970427;28;20484;-73
2023/06/13 05:53:41;;;;;;;6.17;4.47;;;29.40;45.30;;;;;;4973349;28;20548;-72
2023/06/13 05:56:07;;;;;;;6.63;3.87;;;29.80;44.50;;;;;;4967565;28;20545;-74
2023/06/13 05:58:35;;;;;;;6.03;3.97;;;30.10;44.70;;;;;;4966381;28;20888;-73
2023/06/13 06:01:03;;;;;;;7.50;3.80;;;30.60;43.70;;;;;;4968593;28;20435;-73
2023/06/13 06:03:33;;;;;;;5.00;3.40;;;30.90;43.50;;;;;;4967684;28;20462;-72
2023/06/13 06:06:00;;;;;;;6.17;3.73;;;30.90;43.40;;;;;;4972341;28;20468;-73
2023/06/13 06:08:27;;;;;;;6.63;4.90;;;31.10;43.30;;;;;;4969858;28;20438;-72
2023/06/13 06:10:54;;;;;;;6.17;3.80;;;31.20;43.50;;;;;;4964208;28;20474;-72
2023/06/13 06:13:21;;;;;;;4.70;3.80;;;31.30;43.20;;;;;;4970671;28;20473;-71
2023/06/13 06:15:48;;;;;;;5.17;3.80;;;31.30;43.60;;;;;;4971045;28;20481;-74
2023/06/13 06:18:15;;;;;;;5.40;4.00;;;31.80;43.00;;;;;;4965971;28;20811;-72
2023/06/13 06:20:43;;;;;;;10.50;4.70;;;32.20;42.50;;;;;;4970514;28;20450;-73
2023/06/13 06:23:12;;;;;;;6.00;3.60;;;32.50;41.90;;;;;;4975673;28;20529;-72
2023/06/13 06:25:39;;;;;;;7.67;4.10;;;32.60;41.90;;;;;;4974358;28;20972;-72
2023/06/13 06:28:06;;;;;;;4.23;3.93;;;32.90;41.40;;;;;;4981245;28;20527;-73
2023/06/13 06:30:35;;;;;;;4.27;3.87;;;32.80;41.20;;;;;;4965396;28;20985;-74
2023/06/13 06:33:02;;;;;;;3.97;3.67;;;32.90;41.50;;;;;;4967173;28;20916;-72
2023/06/13 06:35:29;;;;;;;6.47;4.73;;;33.10;41.00;;;;;;4964968;28;20450;-72
2023/06/13 06:37:57;;;;;;;5.30;3.83;;;33.40;40.60;;;;;;4966937;28;20948;-75
2023/06/13 06:40:24;;;;;;;5.53;3.77;;;33.70;40.50;;;;;;4963905;28;20662;-73
2023/06/13 06:42:51;;;;;;;13.53;5.63;;;33.70;39.70;;;;;;4964333;28;21032;-74
2023/06/13 06:45:18;;;;;;;6.87;4.10;;;34.10;39.80;;;;;;4969268;28;20810;-75
2023/06/13 06:47:44;;;;;;;7.40;3.73;;;34.00;39.30;;;;;;4969545;28;20903;-73
2023/06/13 06:50:11;;;;;;;6.77;6.17;;;34.50;39.00;;;;;;4964970;28;20875;-74
2023/06/13 06:52:38;;;;;;;5.30;4.40;;;34.50;38.50;;;;;;4962506;28;20856;-73
2023/06/13 06:55:07;;;;;;;7.00;4.00;;;34.80;38.60;;;;;;4967480;28;20530;-73
2023/06/13 06:57:34;;;;;;;6.73;3.70;;;35.20;38.30;;;;;;4968168;28;20441;-74
2023/06/13 07:00:01;;;;;;;5.27;3.60;;;35.10;38.10;;;;;;4970026;28;20960;-75
2023/06/13 07:02:28;;;;;;;6.13;4.00;;;35.20;38.30;;;;;;4969950;28;20879;-74
2023/06/13 07:04:55;;;;;;;7.43;4.03;;;35.50;38.40;;;;;;4975054;28;20482;-74
2023/06/13 07:07:22;;;;;;;3.73;3.27;;;35.60;38.00;;;;;;4968796;28;20480;-73
2023/06/13 07:09:49;;;;;;;8.60;3.90;;;35.80;37.20;;;;;;4975649;28;20484;-72
2023/06/13 07:12:17;;;;;;;4.20;3.77;;;35.90;36.30;;;;;;4969475;28;20507;-74
2023/06/13 07:14:45;;;;;;;5.73;4.23;;;36.10;36.50;;;;;;4968636;28;20533;-73
2023/06/13 07:17:12;;;;;;;5.47;4.37;;;36.10;36.30;;;;;;4977203;28;20541;-75
2023/06/13 07:19:41;;;;;;;20.40;4.77;;;35.90;36.50;;;;;;4969049;28;20451;-73
2023/06/13 07:22:08;;;;;;;5.47;4.73;;;36.10;36.90;;;;;;4969997;28;20446;-73
2023/06/13 07:24:34;;;;;;;8.67;4.53;;;36.40;36.40;;;;;;4971541;28;20449;-73
2023/06/13 07:27:01;;;;;;;11.00;4.90;;;36.30;36.00;;;;;;4968758;28;20918;-74
2023/06/13 07:29:30;;;;;;;5.30;4.03;;;36.50;37.20;;;;;;4971181;28;20437;-73
2023/06/13 07:31:56;;;;;;;5.63;3.80;;;36.70;35.70;;;;;;4970342;28;20517;-73
2023/06/13 07:34:23;;;;;;;6.57;4.60;;;36.80;35.40;;;;;;4964164;28;20438;-73
2023/06/13 07:36:50;;;;;;;7.33;4.20;;;36.80;35.80;;;;;;4970720;28;20438;-73
2023/06/13 07:39:17;;;;;;;4.93;4.10;;;36.70;35.30;;;;;;4975779;28;20954;-74
2023/06/13 07:41:46;;;;;;;4.27;3.57;;;37.10;35.60;;;;;;4972453;28;20445;-74
2023/06/13 07:44:13;;;;;;;5.53;4.67;;;37.40;35.30;;;;;;4965555;28;20968;-74
2023/06/13 07:46:41;;;;;;;5.03;3.73;;;37.50;35.00;;;;;;4968530;28;20469;-72
2023/06/13 07:49:08;;;;;;;4.30;4.00;;;37.10;34.60;;;;;;4969997;28;20501;-73
2023/06/13 07:51:35;;;;;;;4.50;3.73;;;36.70;34.80;;;;;;4973709;28;20480;-75
2023/06/13 07:54:02;;;;;;;41.60;7.57;;;36.20;35.50;;;;;;4967747;28;20526;-74
2023/06/13 07:56:29;;;;;;;6.40;4.57;;;35.90;35.50;;;;;;4974631;28;20437;-74
2023/06/13 07:58:56;;;;;;;4.40;4.10;;;36.00;35.60;;;;;;4969576;28;20537;-74
2023/06/13 08:01:23;;;;;;;6.37;4.90;;;35.90;36.20;;;;;;4966848;28;20864;-73
2023/06/13 08:03:51;;;;;;;6.27;4.00;;;36.10;36.30;;;;;;4966340;28;20961;-73
2023/06/13 08:06:18;;;;;;;4.60;4.20;;;36.20;35.90;;;;;;4970705;28;20500;-74
2023/06/13 08:08:45;;;;;;;15.40;5.20;;;36.50;35.20;;;;;;4976183;28;20896;-73
2023/06/13 08:11:12;;;;;;;8.20;4.23;;;36.50;35.20;;;;;;4971225;28;20514;-73
2023/06/13 08:13:39;;;;;;;11.50;5.47;;;36.30;34.70;;;;;;4975214;28;20476;-74
2023/06/13 08:16:06;;;;;;;5.10;4.60;;;36.90;35.40;;;;;;4968904;28;20948;-73
2023/06/13 08:18:33;;;;;;;5.70;4.27;;;37.20;34.70;;;;;;4968267;28;20438;-74
2023/06/13 08:21:01;;;;;;;6.73;5.07;;;37.40;34.60;;;;;;4962329;28;20530;-72
2023/06/13 08:23:28;;;;;;;7.20;4.73;;;37.30;34.10;;;;;;4968644;28;20567;-72
2023/06/13 08:25:55;;;;;;;18.20;4.57;;;37.80;34.00;;;;;;4966723;28;20474;-74
2023/06/13 08:28:22;;;;;;;5.77;4.70;;;38.00;34.00;;;;;;4969804;28;20529;-74
2023/06/13 08:30:49;;;;;;;6.87;4.67;;;37.80;33.80;;;;;;4971535;28;20442;-73
2023/06/13 08:33:16;;;;;;;7.67;4.80;;;37.80;34.10;;;;;;4969142;28;20560;-74
2023/06/13 08:35:44;;;;;;;6.50;5.10;;;37.90;34.00;;;;;;4967464;28;20963;-72
2023/06/13 08:38:13;;;;;;;5.40;4.97;;;38.00;33.80;;;;;;4967703;28;20879;-74
2023/06/13 08:40:40;;;;;;;7.03;4.70;;;38.40;33.10;;;;;;4971635;28;20537;-73
2023/06/13 08:43:08;;;;;;;18.50;6.57;;;38.50;33.30;;;;;;4968792;28;20817;-73
2023/06/13 08:45:35;;;;;;;6.63;5.70;;;39.00;32.80;;;;;;4967851;28;20581;-73
2023/06/13 08:48:05;;;;;;;5.97;4.13;;;38.80;32.80;;;;;;4965615;28;20465;-72
2023/06/13 08:50:33;;;;;;;5.47;5.07;;;38.70;32.90;;;;;;4968577;28;20505;-72
2023/06/13 08:53:01;;;;;;;7.23;4.33;;;38.70;33.10;;;;;;4970250;28;20997;-73
2023/06/13 08:55:31;;;;;;;6.07;4.77;;;38.50;32.70;;;;;;4971603;28;20540;-72
2023/06/13 08:58:01;;;;;;;4.53;4.10;;;38.20;32.70;;;;;;4975775;28;20514;-72
2023/06/13 09:00:33;;;;;;;6.03;5.23;;;38.30;32.40;;;;;;4981101;28;20505;-73
2023/06/13 09:03:00;;;;;;;10.93;5.27;;;38.20;32.90;;;;;;4965381;28;20988;-73
2023/06/13 09:05:29;;;;;;;8.60;4.60;;;38.00;33.20;;;;;;4963922;28;20541;-74
2023/06/13 09:07:58;;;;;;;6.43;3.93;;;38.00;32.70;;;;;;4966700;28;20449;-74
2023/06/13 09:10:26;;;;;;;6.03;5.53;;;37.80;33.10;;;;;;4964345;28;20538;-73
2023/06/13 09:12:56;;;;;;;6.33;5.70;;;37.60;32.00;;;;;;4966616;28;20493;-74
2023/06/13 09:15:24;;;;;;;7.17;6.53;;;37.70;32.50;;;;;;4967873;28;20446;-73
2023/06/13 09:17:53;;;;;;;9.37;5.93;;;37.20;32.80;;;;;;4970833;28;20537;-71
2023/06/13 09:20:20;;;;;;;6.93;6.33;;;36.70;33.10;;;;;;4966604;28;20944;-73
2023/06/13 09:22:48;;;;;;;8.07;6.53;;;36.60;33.20;;;;;;4967443;28;20462;-72
2023/06/13 09:25:18;;;;;;;6.70;5.80;;;36.40;32.30;;;;;;4963886;28;21004;-75
2023/06/13 09:27:48;;;;;;;9.90;5.30;;;36.00;33.30;;;;;;4970975;28;20442;-74
2023/06/13 09:30:17;;;;;;;5.23;4.73;;;36.20;33.90;;;;;;4968460;28;20518;-73
2023/06/13 09:32:49;;;;;;;5.10;4.63;;;35.80;32.70;;;;;;4965835;28;20570;-74
2023/06/13 09:35:17;;;;;;;5.10;4.60;;;35.60;33.60;;;;;;4964536;28;20454;-73
2023/06/13 09:37:46;;;;;;;4.53;4.13;;;35.70;33.20;;;;;;4962822;28;20444;-76
2023/06/13 09:40:14;;;;;;;8.17;4.80;;;35.60;33.10;;;;;;4969400;28;20453;-73
2023/06/13 09:42:43;;;;;;;7.00;5.10;;;35.70;32.80;;;;;;4967747;28;21028;-73
2023/06/13 09:45:11;;;;;;;5.10;4.67;;;35.60;32.20;;;;;;4967807;28;20469;-74
2023/06/13 09:47:39;;;;;;;5.40;4.97;;;35.00;33.50;;;;;;4968326;28;20479;-73
2023/06/13 09:50:08;;;;;;;6.93;4.70;;;34.60;34.60;;;;;;4963794;28;20907;-72
2023/06/13 09:52:36;;;;;;;5.50;4.90;;;34.80;34.60;;;;;;4966346;28;20868;-73
2023/06/13 09:55:03;;;;;;;6.53;4.87;;;34.70;33.00;;;;;;4966314;28;20609;-74
2023/06/13 09:57:31;;;;;;;8.50;4.83;;;34.80;32.70;;;;;;4974586;28;21033;-74
2023/06/13 09:59:58;;;;;;;10.90;4.87;;;34.70;32.90;;;;;;4971423;28;20472;-73
2023/06/13 10:02:25;;;;;;;9.80;4.83;;;34.90;32.60;;;;;;4967645;28;20565;-73
2023/06/13 10:04:55;;;;;;;6.57;5.90;;;34.70;32.70;;;;;;4967830;28;20553;-73
2023/06/13 10:07:22;;;;;;;6.23;5.10;;;34.80;32.60;;;;;;4972952;28;20521;-75
2023/06/13 10:09:48;;;;;;;7.23;4.30;;;35.10;32.40;;;;;;4966882;28;20470;-74
2023/06/13 10:12:19;;;;;;;6.50;5.90;;;35.30;32.30;;;;;;4969272;28;20494;-74
2023/06/13 10:14:51;;;;;;;5.40;4.93;;;35.60;32.70;;;;;;4971894;28;20456;-72
2023/06/13 10:17:21;;;;;;;4.87;4.50;;;35.80;31.80;;;;;;4972380;28;20453;-73
2023/06/13 10:19:56;;;;;;;5.37;4.97;;;35.50;30.70;;;;;;4968675;28;20501;-73
2023/06/13 10:22:25;;;;;;;4.90;4.50;;;35.50;32.10;;;;;;4965078;28;20550;-72
2023/06/13 10:24:55;;;;;;;5.30;4.90;;;35.20;32.80;;;;;;4968015;28;20441;-74
2023/06/13 10:27:24;;;;;;;4.60;4.30;;;34.60;32.00;;;;;;4972526;28;20553;-72
2023/06/13 10:30:12;;;;;;;6.83;5.20;;;34.60;33.00;;;;;;4970804;28;20466;-73
2023/06/13 10:32:53;;;;;;;6.33;5.27;;;34.40;33.60;;;;;;4965607;28;20532;-76
2023/06/13 10:35:40;;;;;;;10.63;5.20;;;34.60;33.60;;;;;;4960402;28;20453;-74
2023/06/13 10:38:38;;;;;;;5.40;5.00;;;34.00;33.70;;;;;;4966173;28;20521;-73
2023/06/13 10:41:21;;;;;;;5.87;5.23;;;33.00;34.40;;;;;;4966688;28;20460;-72
2023/06/13 10:43:52;;;;;;;5.80;5.00;;;32.50;36.00;;;;;;4970706;28;20471;-75
2023/06/13 10:46:19;;;;;;;7.20;4.40;;;31.70;36.30;;;;;;4971529;28;20540;-74
2023/06/13 10:48:49;;;;;;;5.63;5.13;;;31.30;37.30;;;;;;4968125;28;20434;-73
2023/06/13 10:51:21;;;;;;;5.47;4.43;;;31.00;37.60;;;;;;4972332;28;20456;-73
2023/06/13 10:53:57;;;;;;;6.60;4.77;;;30.80;38.50;;;;;;4967172;28;20605;-72
2023/06/13 10:56:31;;;;;;;5.60;4.30;;;30.40;38.50;;;;;;4970928;28;20446;-74
2023/06/13 10:59:05;;;;;;;5.60;5.07;;;30.20;39.20;;;;;;4959458;28;20545;-72
2023/06/13 11:01:33;;;;;;;5.10;4.70;;;29.90;40.00;;;;;;4974247;28;20522;-72
2023/06/13 11:04:11;;;;;;;5.97;5.47;;;29.80;39.40;;;;;;4980729;28;20465;-75
2023/06/13 11:06:40;;;;;;;5.50;4.70;;;29.70;39.80;;;;;;4966814;28;20445;-73
2023/06/13 11:09:19;;;;;;;6.20;4.70;;;29.70;40.50;;;;;;4969669;28;20948;-73
2023/06/13 11:11:51;;;;;;;8.70;3.90;;;29.60;40.70;;;;;;4964566;28;20641;-71
2023/06/13 11:14:22;;;;;;;5.17;4.77;;;29.60;40.40;;;;;;4969914;28;20450;-74
2023/06/13 11:16:49;;;;;;;7.37;5.50;;;29.60;41.10;;;;;;4971062;28;20532;-74
2023/06/13 11:19:17;;;;;;;7.10;5.23;;;29.60;40.90;;;;;;4968827;28;20488;-73
2023/06/13 11:21:46;;;;;;;6.37;5.47;;;29.50;40.70;;;;;;4964717;28;20461;-72
2023/06/13 11:24:17;;;;;;;5.10;4.60;;;29.40;40.70;;;;;;4970171;28;20473;-72
2023/06/13 11:26:45;;;;;;;5.53;5.07;;;29.40;40.80;;;;;;4968842;28;20458;-74
2023/06/13 11:29:13;;;;;;;6.20;5.60;;;29.40;40.50;;;;;;4973466;28;20455;-73
2023/06/13 11:31:40;;;;;;;5.57;5.07;;;29.20;39.90;;;;;;4965706;28;20901;-72
2023/06/13 11:34:15;;;;;;;6.53;5.93;;;28.80;40.60;;;;;;4965821;28;20493;-73
2023/06/13 11:36:44;;;;;;;6.90;5.27;;;28.70;41.70;;;;;;4964799;28;20540;-74
2023/06/13 11:39:14;;;;;;;6.60;5.10;;;28.60;41.60;;;;;;4968608;28;20457;-73
2023/06/13 11:41:42;;;;;;;5.50;5.10;;;28.70;42.00;;;;;;4965695;28;20446;-74
2023/06/13 11:44:10;;;;;;;5.87;5.40;;;28.70;41.50;;;;;;4970432;28;20980;-74
2023/06/13 11:46:43;;;;;;;5.73;5.23;;;28.60;42.00;;;;;;4970401;28;20449;-72
2023/06/13 11:49:14;;;;;;;6.37;5.13;;;28.60;42.90;;;;;;4968414;28;20469;-74
2023/06/13 11:51:42;;;;;;;6.30;4.83;;;28.60;42.50;;;;;;4971385;28;20445;-74
2023/06/13 11:54:10;;;;;;;8.83;4.87;;;28.60;42.30;;;;;;4966973;28;20504;-74
2023/06/13 11:56:51;;;;;;;5.43;4.93;;;28.60;41.80;;;;;;4970883;28;20456;-76
2023/06/13 11:59:19;;;;;;;4.93;4.40;;;28.60;41.60;;;;;;4971822;28;20533;-73
2023/06/13 12:01:49;;;;;;;7.70;5.30;;;28.40;41.90;;;;;;4972108;28;20453;-75
2023/06/13 12:04:16;;;;;;;7.73;5.30;;;28.40;42.70;;;;;;4969750;28;20453;-73
2023/06/13 12:06:43;;;;;;;7.53;5.70;;;28.40;41.90;;;;;;4967850;28;20544;-73
2023/06/13 12:09:10;;;;;;;5.87;5.30;;;28.40;41.60;;;;;;4963319;28;20482;-74
2023/06/13 12:11:39;;;;;;;6.63;5.47;;;28.30;41.30;;;;;;4973934;28;20473;-73
2023/06/13 12:14:06;;;;;;;6.60;6.00;;;28.20;41.00;;;;;;4966847;28;20490;-75
2023/06/13 12:16:36;;;;;;;7.33;5.83;;;28.10;41.20;;;;;;4974034;28;20533;-74
2023/06/13 12:19:05;;;;;;;6.30;5.60;;;28.10;41.00;;;;;;4972855;28;20526;-72
2023/06/13 12:21:33;;;;;;;7.87;4.70;;;28.20;41.40;;;;;;4969576;28;21007;-73
2023/06/13 12:24:03;;;;;;;4.80;4.40;;;28.30;40.60;;;;;;4971154;28;20553;-73
2023/06/13 12:26:33;;;;;;;6.60;5.37;;;28.40;40.20;;;;;;4969150;28;20462;-73
2023/06/13 12:29:04;;;;;;;6.17;5.17;;;28.20;40.30;;;;;;4974596;28;20477;-72
2023/06/13 12:31:33;;;;;;;5.80;4.77;;;28.10;40.70;;;;;;4966116;28;20446;-75
2023/06/13 12:34:13;;;;;;;5.63;4.80;;;28.00;41.10;;;;;;4972721;28;20871;-73
2023/06/13 12:36:44;;;;;;;5.47;5.00;;;28.00;40.40;;;;;;4966589;28;20485;-73
2023/06/13 12:39:14;;;;;;;5.20;4.70;;;28.00;40.60;;;;;;4967661;28;20810;-73
2023/06/13 12:41:45;;;;;;;5.70;5.03;;;27.90;40.40;;;;;;4965858;28;20450;-74
2023/06/13 12:44:13;;;;;;;13.03;6.23;;;28.00;41.00;;;;;;4972483;28;20469;-73
2023/06/13 12:46:40;;;;;;;6.30;5.63;;;28.00;40.20;;;;;;4969171;28;20573;-73
2023/06/13 12:49:09;;;;;;;5.77;5.00;;;28.10;40.10;;;;;;4970795;28;20529;-74
2023/06/13 12:51:42;;;;;;;5.30;4.80;;;28.10;39.50;;;;;;4985448;28;20452;-74
2023/06/13 12:54:13;;;;;;;5.57;5.07;;;27.90;39.10;;;;;;4974832;28;20500;-75